M\t Eviapetrol III — SVA3278 — position and weather

sailwx.info

Track history (hours):
 
Tides and Currents Weather Stations Pressure Air Temp Water Temp Dewpoint Dewpoint Depression Visibility Wind Speed Wind Dir Waves Ship Positions

M\t Eviapetrol III

Last reported at 2018-Jun-21 09:32 UTC. Time now 2018-Jun-22 13:30 UTC.
Position N 37°37' E 023°53'.

Length 78 m; draft 4.8 m.

Type: Tanker. MMSI: 240949000.

Date/timePositionNaut miles runAvg speedWind from/ knotsBaromVisibWave heightAir tempDewpointWater temp
2018-Jun-21 09:32N 37°37' E 023°53'1 7.5
2018-Jun-21 09:25N 37°37' E 023°52'3 8.3
2018-Jun-21 09:00N 37°38' E 023°48'4 7.7
2018-Jun-21 08:30N 37°39' E 023°43'4 8.3
2018-Jun-21 08:00N 37°43' E 023°40'4 8.9
2018-Jun-21 07:30N 37°47' E 023°38'4 8.9
2018-Jun-21 07:00N 37°51' E 023°36'5 9.0
2018-Jun-21 06:30N 37°56' E 023°36'4 7.5
2018-Jun-21 06:00N 37°58' E 023°33'3 6.2
2018-Jun-21 05:31N 38°01' E 023°34'1 1.8
2018-Jun-21 05:00N 38°01' E 023°35'1 1.5
2018-Jun-21 04:28N 38°02' E 023°36'0 0.0
2018-Jun-21 03:58N 38°02' E 023°36'0 0.0
2018-Jun-21 03:28N 38°02' E 023°36'0 0.0
2018-Jun-21 02:58N 38°02' E 023°36'0 0.0
2018-Jun-21 02:28N 38°02' E 023°36'0 0.0
2018-Jun-21 01:58N 38°02' E 023°36'0 0.0
2018-Jun-21 01:28N 38°02' E 023°36'0 0.0
2018-Jun-21 00:58N 38°02' E 023°36'0 0.0
2018-Jun-21 00:28N 38°02' E 023°36'0 0.0
2018-Jun-20 23:58N 38°02' E 023°36'0 0.0
2018-Jun-20 23:28N 38°02' E 023°36'0 0.0
2018-Jun-20 22:58N 38°02' E 023°36'0 0.0
2018-Jun-20 22:28N 38°02' E 023°36'0 0.0
2018-Jun-20 21:58N 38°02' E 023°36'0 0.0
2018-Jun-20 21:28N 38°02' E 023°36'0 0.0
2018-Jun-20 20:58N 38°02' E 023°36'0 0.0
2018-Jun-20 20:28N 38°02' E 023°36'0 0.0
2018-Jun-20 19:58N 38°02' E 023°36'0 0.0
2018-Jun-20 19:28N 38°02' E 023°36'0 0.0
2018-Jun-20 18:58N 38°02' E 023°36'0 0.0
2018-Jun-20 18:28N 38°02' E 023°36'0 0.0
2018-Jun-20 17:58N 38°02' E 023°36'0 0.0
2018-Jun-20 17:29N 38°02' E 023°36'0 0.6
2018-Jun-20 17:00N 38°01' E 023°35'1 2.0
2018-Jun-20 16:23N 38°01' E 023°34'0 0.0
2018-Jun-20 15:59N 38°01' E 023°34'0 0.0
2018-Jun-20 15:29N 38°01' E 023°34'0 0.0
2018-Jun-20 14:59N 38°00' E 023°34'0 0.0
2018-Jun-20 14:29N 38°01' E 023°34'0 0.0
2018-Jun-20 13:56N 38°01' E 023°34'0 0.0
2018-Jun-20 13:29N 38°00' E 023°34'0 0.0
2018-Jun-20 12:59N 38°00' E 023°34'0 0.0
2018-Jun-20 12:29N 38°01' E 023°34'0 0.0
2018-Jun-20 11:59N 38°00' E 023°34'0 0.0
2018-Jun-20 11:29N 38°00' E 023°34'0 0.0
2018-Jun-20 10:59N 38°00' E 023°34'0 0.0
2018-Jun-20 10:29N 38°00' E 023°34'0 0.0
2018-Jun-20 09:59N 38°00' E 023°34'0 0.0
2018-Jun-20 09:29N 38°00' E 023°34'0 0.0
2018-Jun-20 08:59N 38°00' E 023°34'0 0.0
2018-Jun-20 08:29N 38°01' E 023°34'0 0.0
2018-Jun-20 07:59N 38°01' E 023°34'0 0.0
2018-Jun-20 07:29N 38°00' E 023°34'0 0.0
2018-Jun-20 06:59N 38°00' E 023°34'0 0.1
2018-Jun-20 06:29N 38°01' E 023°35'0 0.0
2018-Jun-20 05:59N 38°01' E 023°35'0 0.0
2018-Jun-20 05:29N 38°01' E 023°35'0 0.0
2018-Jun-20 04:59N 38°01' E 023°35'0 0.0
2018-Jun-20 04:29N 38°01' E 023°35'0 0.0
2018-Jun-20 03:59N 38°00' E 023°35'0 0.0
2018-Jun-20 03:29N 38°01' E 023°35'0 0.0
2018-Jun-20 02:59N 38°01' E 023°35'0 0.0
2018-Jun-20 02:29N 38°01' E 023°35'0 0.0
2018-Jun-20 01:59N 38°01' E 023°35'0 0.0
2018-Jun-20 01:26N 38°01' E 023°35'0 0.0
2018-Jun-20 00:59N 38°01' E 023°35'0 0.0
2018-Jun-20 00:26N 38°01' E 023°35'0 0.0
2018-Jun-19 23:59N 38°01' E 023°35'0 0.0
2018-Jun-19 23:29N 38°01' E 023°35'0 0.0
2018-Jun-19 22:59N 38°01' E 023°35'0 0.0
2018-Jun-19 22:29N 38°00' E 023°35'0 0.0
2018-Jun-19 21:59N 38°01' E 023°35'0 0.0
2018-Jun-19 21:29N 38°01' E 023°34'0 0.0
2018-Jun-19 20:59N 38°01' E 023°34'0 0.0
2018-Jun-19 20:26N 38°01' E 023°34'0 0.0
2018-Jun-19 19:56N 38°01' E 023°34'0 0.1
2018-Jun-19 19:29N 38°01' E 023°35'2 4.3
2018-Jun-19 19:00N 38°01' E 023°32'1 1.5
2018-Jun-19 18:26N 38°02' E 023°32'0 0.0
2018-Jun-19 17:59N 38°02' E 023°32'0 0.0
2018-Jun-19 17:29N 38°02' E 023°32'0 0.0
2018-Jun-19 16:59N 38°02' E 023°32'0 0.0
2018-Jun-19 16:23N 38°02' E 023°32'0 0.0
2018-Jun-19 15:59N 38°02' E 023°32'0 0.0
2018-Jun-19 15:30N 38°02' E 023°32'2 4.2
2018-Jun-19 15:00N 38°00' E 023°33'4 8.0
2018-Jun-19 14:30N 37°57' E 023°36'2 4.4
2018-Jun-19 14:00N 37°55' E 023°36'0 0.7
2018-Jun-19 13:30N 37°54' E 023°36'1 1.4
2018-Jun-19 13:00N 37°54' E 023°36'0 0.9
2018-Jun-19 12:30N 37°54' E 023°36'1 2.5
2018-Jun-19 12:00N 37°52' E 023°37'4 8.5
2018-Jun-19 11:30N 37°49' E 023°40'5 9.8
2018-Jun-19 11:00N 37°45' E 023°43'510.0
2018-Jun-19 10:30N 37°40' E 023°45'510.0
2018-Jun-19 10:00N 37°35' E 023°47'  
2018-Jun-17 04:20N 37°36' E 025°39'411.1
2018-Jun-17 04:00N 37°35' E 025°35'511.0
2018-Jun-17 03:30N 37°34' E 025°28'510.5
2018-Jun-17 03:00N 37°32' E 025°22'510.7
2018-Jun-17 02:30N 37°31' E 025°16'510.4
2018-Jun-17 02:00N 37°30' E 025°09'610.4
2018-Jun-17 01:28N 37°31' E 025°02'510.2
2018-Jun-17 00:58N 37°33' E 024°56'4 8.5
2018-Jun-17 00:30N 37°33' E 024°51'4 8.1
2018-Jun-17 00:00N 37°32' E 024°46'42 9.3
2018-Jun-16 19:28N 37°36' E 023°53'510.5
2018-Jun-16 18:58N 37°38' E 023°47'510.1
2018-Jun-16 18:30N 37°40' E 023°42'510.5
2018-Jun-16 18:00N 37°45' E 023°39'510.4
2018-Jun-16 17:30N 37°50' E 023°36'510.4
2018-Jun-16 17:00N 37°55' E 023°35'4 8.7
2018-Jun-16 16:30N 37°59' E 023°33'4 7.0
2018-Jun-16 16:00N 38°02' E 023°36'0 0.0
2018-Jun-16 15:30N 38°02' E 023°36'0 0.0
2018-Jun-16 15:00N 38°02' E 023°36'0 0.0
2018-Jun-16 14:30N 38°02' E 023°36'0 0.0
2018-Jun-16 14:00N 38°02' E 023°36'0 0.0
2018-Jun-16 13:30N 38°02' E 023°36'0 0.0
2018-Jun-16 13:00N 38°02' E 023°36'0 0.0
2018-Jun-16 12:30N 38°02' E 023°36'0 0.0
2018-Jun-16 12:00N 38°02' E 023°36'0 0.0
2018-Jun-16 11:30N 38°02' E 023°36'0 0.0
2018-Jun-16 11:00N 38°02' E 023°36'0 0.0
2018-Jun-16 10:30N 38°02' E 023°36'0 0.0
2018-Jun-16 10:00N 38°02' E 023°36'0 0.0
2018-Jun-16 09:30N 38°02' E 023°36'0 0.0
2018-Jun-16 09:00N 38°02' E 023°36'0 0.0
2018-Jun-16 08:30N 38°02' E 023°36'0 0.0
2018-Jun-16 08:00N 38°02' E 023°36'0 0.0
2018-Jun-16 07:30N 38°02' E 023°36'0 0.0
2018-Jun-16 07:00N 38°02' E 023°36'0 0.0
2018-Jun-16 06:30N 38°02' E 023°36'0 0.0
2018-Jun-16 05:57N 38°02' E 023°36'0 0.0
2018-Jun-16 05:30N 38°02' E 023°36'0 0.0
2018-Jun-16 05:00N 38°02' E 023°36'0 0.0
2018-Jun-16 04:30N 38°02' E 023°36'0 0.0
2018-Jun-16 04:00N 38°02' E 023°36'0 0.0
2018-Jun-16 03:30N 38°02' E 023°36'0 0.0
2018-Jun-16 03:00N 38°02' E 023°36'0 0.0
2018-Jun-16 02:30N 38°02' E 023°36'0 0.0
2018-Jun-16 02:00N 38°02' E 023°36'0 0.0
2018-Jun-16 01:30N 38°02' E 023°36'2 3.2
2018-Jun-16 01:00N 38°01' E 023°34'4 8.2
2018-Jun-16 00:30N 38°01' E 023°29'3 6.8
2018-Jun-16 00:00N 37°58' E 023°26'4 8.3
2018-Jun-15 23:30N 37°55' E 023°22'5 9.8
2018-Jun-15 23:00N 37°51' E 023°20'5 9.6
2018-Jun-15 22:30N 37°46' E 023°18'5 9.8
2018-Jun-15 22:00N 37°41' E 023°17'4 8.3
2018-Jun-15 21:30N 37°39' E 023°22'5 9.9
2018-Jun-15 21:00N 37°39' E 023°29'5 9.6
2018-Jun-15 20:30N 37°38' E 023°34'5 9.8
2018-Jun-15 20:00N 37°37' E 023°41'6 9.2
2018-Jun-15 19:21N 37°37' E 023°48'157 8.8
2018-Jun-15 01:27N 40°04' E 024°59'1410.5
2018-Jun-15 00:05N 40°15' E 025°10'310.0
2018-Jun-14 23:46N 40°18' E 025°12'3 9.8
2018-Jun-14 23:24N 40°21' E 025°15'4 9.4
2018-Jun-14 22:59N 40°24' E 025°18'5 9.6
2018-Jun-14 22:30N 40°28' E 025°21'5 9.7
2018-Jun-14 21:58N 40°32' E 025°26'5 9.9
2018-Jun-14 21:28N 40°35' E 025°31'510.4
2018-Jun-14 21:00N 40°38' E 025°36'610.3
2018-Jun-14 20:26N 40°41' E 025°43'13 7.0
2018-Jun-14 18:34N 40°50' E 025°55'0 0.0
2018-Jun-14 18:16N 40°50' E 025°55'0 0.0
2018-Jun-14 17:34N 40°50' E 025°55'0 0.0
2018-Jun-14 17:10N 40°50' E 025°55'0 0.0
2018-Jun-14 16:58N 40°50' E 025°55'0 0.0
2018-Jun-14 16:28N 40°50' E 025°55'0 0.0
2018-Jun-14 15:58N 40°50' E 025°55'0 0.0
2018-Jun-14 15:28N 40°50' E 025°55'0 0.0
2018-Jun-14 14:58N 40°50' E 025°55'0 0.0
2018-Jun-14 14:28N 40°50' E 025°55'0 0.0
2018-Jun-14 13:58N 40°50' E 025°55'0 0.0
2018-Jun-14 13:28N 40°50' E 025°55'0 0.0
2018-Jun-14 12:58N 40°50' E 025°55'0 0.0
2018-Jun-14 12:28N 40°50' E 025°55'0 0.0
2018-Jun-14 11:55N 40°50' E 025°55'0 0.0
2018-Jun-14 09:55N 40°50' E 025°55'0 0.0
2018-Jun-14 09:19N 40°50' E 025°55'0 0.0
2018-Jun-14 07:24N 40°50' E 025°55'0 0.1
2018-Jun-14 07:00N 40°50' E 025°55'0 0.6
2018-Jun-14 06:30N 40°50' E 025°55'2 3.9
2018-Jun-14 05:57N 40°48' E 025°55'2 3.6
2018-Jun-14 05:29N 40°47' E 025°53'5 9.6
2018-Jun-14 05:00N 40°44' E 025°48'5 9.6
2018-Jun-14 04:31N 40°41' E 025°43'5 9.5
2018-Jun-14 04:01N 40°39' E 025°37'5 9.4
2018-Jun-14 03:30N 40°36' E 025°32'5 9.4
2018-Jun-14 03:00N 40°33' E 025°27'5 9.7
2018-Jun-14 02:30N 40°30' E 025°23'510.7
2018-Jun-14 02:01N 40°25' E 025°19'610.8
2018-Jun-14 01:30N 40°21' E 025°15'510.3
2018-Jun-14 00:59N 40°16' E 025°11'510.5
2018-Jun-14 00:30N 40°12' E 025°07'510.5
2018-Jun-14 00:00N 40°08' E 025°03'510.0
2018-Jun-13 23:29N 40°04' E 024°59'5 9.7
2018-Jun-13 23:00N 39°60' E 024°56'510.1
2018-Jun-13 22:28N 39°54' E 024°55'510.5
2018-Jun-13 22:00N 39°50' E 024°55'610.3
2018-Jun-13 21:23N 39°43' E 024°55'136 8.9
2018-Jun-13 06:02N 37°35' E 023°56'410.0
2018-Jun-13 05:41N 37°35' E 023°52'2 9.7
2018-Jun-13 05:28N 37°35' E 023°49'4 9.2
2018-Jun-13 05:01N 37°37' E 023°44'5 9.8
2018-Jun-13 04:31N 37°38' E 023°38'5 9.7
2018-Jun-13 04:01N 37°38' E 023°32'5 9.8
2018-Jun-13 03:30N 37°39' E 023°26'5 9.7
2018-Jun-13 03:00N 37°39' E 023°20'4 8.3
2018-Jun-13 02:30N 37°43' E 023°17'5 9.9
2018-Jun-13 02:00N 37°48' E 023°18'5 9.8
2018-Jun-13 01:30N 37°53' E 023°20'5 9.9
2018-Jun-13 01:01N 37°57' E 023°24'3 6.6
2018-Jun-13 00:31N 37°60' E 023°26'4 8.0
2018-Jun-13 00:00N 38°01' E 023°31'4 7.3
2018-Jun-12 23:31N 38°01' E 023°35'1 1.0
2018-Jun-12 23:01N 38°02' E 023°36'0 0.0
2018-Jun-12 22:29N 38°02' E 023°36'0 0.0
2018-Jun-12 21:59N 38°02' E 023°36'0 0.0
2018-Jun-12 21:29N 38°02' E 023°36'0 0.0
2018-Jun-12 20:59N 38°02' E 023°36'0 0.0
2018-Jun-12 20:29N 38°02' E 023°36'0 0.0
2018-Jun-12 19:59N 38°02' E 023°36'0 0.0
2018-Jun-12 19:29N 38°02' E 023°36'0 0.0
2018-Jun-12 18:59N 38°02' E 023°36'0 0.0
2018-Jun-12 18:29N 38°02' E 023°36'0 0.0
2018-Jun-12 17:59N 38°02' E 023°36'0 0.0
2018-Jun-12 17:29N 38°02' E 023°36'0 0.0
2018-Jun-12 16:59N 38°02' E 023°36'0 0.0
2018-Jun-12 16:29N 38°02' E 023°36'0 0.0
2018-Jun-12 15:59N 38°02' E 023°36'0 0.0
2018-Jun-12 15:29N 38°02' E 023°36'0 0.0
2018-Jun-12 14:59N 38°02' E 023°36'0 0.0
2018-Jun-12 14:29N 38°02' E 023°36'0 0.0
2018-Jun-12 13:59N 38°02' E 023°36'0 0.0
2018-Jun-12 13:29N 38°02' E 023°36'0 0.0
2018-Jun-12 13:00N 38°02' E 023°36'1 1.1
2018-Jun-12 12:30N 38°01' E 023°35'1 1.1
2018-Jun-12 12:01N 38°01' E 023°35'0 0.6
2018-Jun-12 11:30N 38°01' E 023°35'0 0.0
2018-Jun-12 11:00N 38°01' E 023°35'0 0.0
2018-Jun-12 10:31N 38°01' E 023°35'0 0.0
2018-Jun-12 10:00N 38°01' E 023°35'0 0.0
2018-Jun-12 09:28N 38°01' E 023°34'0 0.0
2018-Jun-12 08:57N 38°01' E 023°35'0 0.0
2018-Jun-12 08:30N 38°01' E 023°34'0 0.0
2018-Jun-12 08:01N 38°01' E 023°34'0 0.0
2018-Jun-12 07:31N 38°01' E 023°34'0 0.2
2018-Jun-12 07:00N 38°01' E 023°34'2 4.9
2018-Jun-12 06:31N 37°59' E 023°33'4 7.3
2018-Jun-12 06:01N 37°55' E 023°35'4 8.8
2018-Jun-12 05:31N 37°52' E 023°38'5 9.6
2018-Jun-12 05:01N 37°48' E 023°41'5 9.6
2018-Jun-12 04:31N 37°43' E 023°44'5 9.1
2018-Jun-12 04:00N 37°40' E 023°48'156 9.4
2018-Jun-11 11:24N 40°05' E 025°00'5 9.7
2018-Jun-11 10:52N 40°09' E 025°04'4 9.6
2018-Jun-11 10:26N 40°13' E 025°07'4 9.5
2018-Jun-11 10:01N 40°16' E 025°09'  
Track history (hours):
 
Tides and Currents Weather Stations Pressure Air Temp Water Temp Dewpoint Dewpoint Depression Visibility Wind Speed Wind Dir Waves Ship Positions

M\t Eviapetrol III

Last reported at 2018-Jun-21 09:32 UTC. Time now 2018-Jun-22 13:30 UTC.
Position N 37°37' E 023°53'.

Length 78 m; draft 4.8 m.

Type: Tanker. MMSI: 240949000.

Date/timePositionNaut miles runAvg speedWind from/ knotsBaromVisibWave heightAir tempDewpointWater temp
2018-Jun-21 09:32N 37°37' E 023°53'1 7.5
2018-Jun-21 09:25N 37°37' E 023°52'3 8.3
2018-Jun-21 09:00N 37°38' E 023°48'4 7.7
2018-Jun-21 08:30N 37°39' E 023°43'4 8.3
2018-Jun-21 08:00N 37°43' E 023°40'4 8.9
2018-Jun-21 07:30N 37°47' E 023°38'4 8.9
2018-Jun-21 07:00N 37°51' E 023°36'5 9.0
2018-Jun-21 06:30N 37°56' E 023°36'4 7.5
2018-Jun-21 06:00N 37°58' E 023°33'3 6.2
2018-Jun-21 05:31N 38°01' E 023°34'1 1.8
2018-Jun-21 05:00N 38°01' E 023°35'1 1.5
2018-Jun-21 04:28N 38°02' E 023°36'0 0.0
2018-Jun-21 03:58N 38°02' E 023°36'0 0.0
2018-Jun-21 03:28N 38°02' E 023°36'0 0.0
2018-Jun-21 02:58N 38°02' E 023°36'0 0.0
2018-Jun-21 02:28N 38°02' E 023°36'0 0.0
2018-Jun-21 01:58N 38°02' E 023°36'0 0.0
2018-Jun-21 01:28N 38°02' E 023°36'0 0.0
2018-Jun-21 00:58N 38°02' E 023°36'0 0.0
2018-Jun-21 00:28N 38°02' E 023°36'0 0.0
2018-Jun-20 23:58N 38°02' E 023°36'0 0.0
2018-Jun-20 23:28N 38°02' E 023°36'0 0.0
2018-Jun-20 22:58N 38°02' E 023°36'0 0.0
2018-Jun-20 22:28N 38°02' E 023°36'0 0.0
2018-Jun-20 21:58N 38°02' E 023°36'0 0.0
2018-Jun-20 21:28N 38°02' E 023°36'0 0.0
2018-Jun-20 20:58N 38°02' E 023°36'0 0.0
2018-Jun-20 20:28N 38°02' E 023°36'0 0.0
2018-Jun-20 19:58N 38°02' E 023°36'0 0.0
2018-Jun-20 19:28N 38°02' E 023°36'0 0.0
2018-Jun-20 18:58N 38°02' E 023°36'0 0.0
2018-Jun-20 18:28N 38°02' E 023°36'0 0.0
2018-Jun-20 17:58N 38°02' E 023°36'0 0.0
2018-Jun-20 17:29N 38°02' E 023°36'0 0.6
2018-Jun-20 17:00N 38°01' E 023°35'1 2.0
2018-Jun-20 16:23N 38°01' E 023°34'0 0.0
2018-Jun-20 15:59N 38°01' E 023°34'0 0.0
2018-Jun-20 15:29N 38°01' E 023°34'0 0.0
2018-Jun-20 14:59N 38°00' E 023°34'0 0.0
2018-Jun-20 14:29N 38°01' E 023°34'0 0.0
2018-Jun-20 13:56N 38°01' E 023°34'0 0.0
2018-Jun-20 13:29N 38°00' E 023°34'0 0.0
2018-Jun-20 12:59N 38°00' E 023°34'0 0.0
2018-Jun-20 12:29N 38°01' E 023°34'0 0.0
2018-Jun-20 11:59N 38°00' E 023°34'0 0.0
2018-Jun-20 11:29N 38°00' E 023°34'0 0.0
2018-Jun-20 10:59N 38°00' E 023°34'0 0.0
2018-Jun-20 10:29N 38°00' E 023°34'0 0.0
2018-Jun-20 09:59N 38°00' E 023°34'0 0.0
2018-Jun-20 09:29N 38°00' E 023°34'0 0.0
2018-Jun-20 08:59N 38°00' E 023°34'0 0.0
2018-Jun-20 08:29N 38°01' E 023°34'0 0.0
2018-Jun-20 07:59N 38°01' E 023°34'0 0.0
2018-Jun-20 07:29N 38°00' E 023°34'0 0.0
2018-Jun-20 06:59N 38°00' E 023°34'0 0.1
2018-Jun-20 06:29N 38°01' E 023°35'0 0.0
2018-Jun-20 05:59N 38°01' E 023°35'0 0.0
2018-Jun-20 05:29N 38°01' E 023°35'0 0.0
2018-Jun-20 04:59N 38°01' E 023°35'0 0.0
2018-Jun-20 04:29N 38°01' E 023°35'0 0.0
2018-Jun-20 03:59N 38°00' E 023°35'0 0.0
2018-Jun-20 03:29N 38°01' E 023°35'0 0.0
2018-Jun-20 02:59N 38°01' E 023°35'0 0.0
2018-Jun-20 02:29N 38°01' E 023°35'0 0.0
2018-Jun-20 01:59N 38°01' E 023°35'0 0.0
2018-Jun-20 01:26N 38°01' E 023°35'0 0.0
2018-Jun-20 00:59N 38°01' E 023°35'0 0.0
2018-Jun-20 00:26N 38°01' E 023°35'0 0.0
2018-Jun-19 23:59N 38°01' E 023°35'0 0.0
2018-Jun-19 23:29N 38°01' E 023°35'0 0.0
2018-Jun-19 22:59N 38°01' E 023°35'0 0.0
2018-Jun-19 22:29N 38°00' E 023°35'0 0.0
2018-Jun-19 21:59N 38°01' E 023°35'0 0.0
2018-Jun-19 21:29N 38°01' E 023°34'0 0.0
2018-Jun-19 20:59N 38°01' E 023°34'0 0.0
2018-Jun-19 20:26N 38°01' E 023°34'0 0.0
2018-Jun-19 19:56N 38°01' E 023°34'0 0.1
2018-Jun-19 19:29N 38°01' E 023°35'2 4.3
2018-Jun-19 19:00N 38°01' E 023°32'1 1.5
2018-Jun-19 18:26N 38°02' E 023°32'0 0.0
2018-Jun-19 17:59N 38°02' E 023°32'0 0.0
2018-Jun-19 17:29N 38°02' E 023°32'0 0.0
2018-Jun-19 16:59N 38°02' E 023°32'0 0.0
2018-Jun-19 16:23N 38°02' E 023°32'0 0.0
2018-Jun-19 15:59N 38°02' E 023°32'0 0.0
2018-Jun-19 15:30N 38°02' E 023°32'2 4.2
2018-Jun-19 15:00N 38°00' E 023°33'4 8.0
2018-Jun-19 14:30N 37°57' E 023°36'2 4.4
2018-Jun-19 14:00N 37°55' E 023°36'0 0.7
2018-Jun-19 13:30N 37°54' E 023°36'1 1.4
2018-Jun-19 13:00N 37°54' E 023°36'0 0.9
2018-Jun-19 12:30N 37°54' E 023°36'1 2.5
2018-Jun-19 12:00N 37°52' E 023°37'4 8.5
2018-Jun-19 11:30N 37°49' E 023°40'5 9.8
2018-Jun-19 11:00N 37°45' E 023°43'510.0
2018-Jun-19 10:30N 37°40' E 023°45'510.0
2018-Jun-19 10:00N 37°35' E 023°47'  
2018-Jun-17 04:20N 37°36' E 025°39'411.1
2018-Jun-17 04:00N 37°35' E 025°35'511.0
2018-Jun-17 03:30N 37°34' E 025°28'510.5
2018-Jun-17 03:00N 37°32' E 025°22'510.7
2018-Jun-17 02:30N 37°31' E 025°16'510.4
2018-Jun-17 02:00N 37°30' E 025°09'610.4
2018-Jun-17 01:28N 37°31' E 025°02'510.2
2018-Jun-17 00:58N 37°33' E 024°56'4 8.5
2018-Jun-17 00:30N 37°33' E 024°51'4 8.1
2018-Jun-17 00:00N 37°32' E 024°46'42 9.3
2018-Jun-16 19:28N 37°36' E 023°53'510.5
2018-Jun-16 18:58N 37°38' E 023°47'510.1
2018-Jun-16 18:30N 37°40' E 023°42'510.5
2018-Jun-16 18:00N 37°45' E 023°39'510.4
2018-Jun-16 17:30N 37°50' E 023°36'510.4
2018-Jun-16 17:00N 37°55' E 023°35'4 8.7
2018-Jun-16 16:30N 37°59' E 023°33'4 7.0
2018-Jun-16 16:00N 38°02' E 023°36'0 0.0
2018-Jun-16 15:30N 38°02' E 023°36'0 0.0
2018-Jun-16 15:00N 38°02' E 023°36'0 0.0
2018-Jun-16 14:30N 38°02' E 023°36'0 0.0
2018-Jun-16 14:00N 38°02' E 023°36'0 0.0
2018-Jun-16 13:30N 38°02' E 023°36'0 0.0
2018-Jun-16 13:00N 38°02' E 023°36'0 0.0
2018-Jun-16 12:30N 38°02' E 023°36'0 0.0
2018-Jun-16 12:00N 38°02' E 023°36'0 0.0
2018-Jun-16 11:30N 38°02' E 023°36'0 0.0
2018-Jun-16 11:00N 38°02' E 023°36'0 0.0
2018-Jun-16 10:30N 38°02' E 023°36'0 0.0
2018-Jun-16 10:00N 38°02' E 023°36'0 0.0
2018-Jun-16 09:30N 38°02' E 023°36'0 0.0
2018-Jun-16 09:00N 38°02' E 023°36'0 0.0
2018-Jun-16 08:30N 38°02' E 023°36'0 0.0
2018-Jun-16 08:00N 38°02' E 023°36'0 0.0
2018-Jun-16 07:30N 38°02' E 023°36'0 0.0
2018-Jun-16 07:00N 38°02' E 023°36'0 0.0
2018-Jun-16 06:30N 38°02' E 023°36'0 0.0
2018-Jun-16 05:57N 38°02' E 023°36'0 0.0
2018-Jun-16 05:30N 38°02' E 023°36'0 0.0
2018-Jun-16 05:00N 38°02' E 023°36'0 0.0
2018-Jun-16 04:30N 38°02' E 023°36'0 0.0
2018-Jun-16 04:00N 38°02' E 023°36'0 0.0
2018-Jun-16 03:30N 38°02' E 023°36'0 0.0
2018-Jun-16 03:00N 38°02' E 023°36'0 0.0
2018-Jun-16 02:30N 38°02' E 023°36'0 0.0
2018-Jun-16 02:00N 38°02' E 023°36'0 0.0
2018-Jun-16 01:30N 38°02' E 023°36'2 3.2
2018-Jun-16 01:00N 38°01' E 023°34'4 8.2
2018-Jun-16 00:30N 38°01' E 023°29'3 6.8
2018-Jun-16 00:00N 37°58' E 023°26'4 8.3
2018-Jun-15 23:30N 37°55' E 023°22'5 9.8
2018-Jun-15 23:00N 37°51' E 023°20'5 9.6
2018-Jun-15 22:30N 37°46' E 023°18'5 9.8
2018-Jun-15 22:00N 37°41' E 023°17'4 8.3
2018-Jun-15 21:30N 37°39' E 023°22'5 9.9
2018-Jun-15 21:00N 37°39' E 023°29'5 9.6
2018-Jun-15 20:30N 37°38' E 023°34'5 9.8
2018-Jun-15 20:00N 37°37' E 023°41'6 9.2
2018-Jun-15 19:21N 37°37' E 023°48'157 8.8
2018-Jun-15 01:27N 40°04' E 024°59'1410.5
2018-Jun-15 00:05N 40°15' E 025°10'310.0
2018-Jun-14 23:46N 40°18' E 025°12'3 9.8
2018-Jun-14 23:24N 40°21' E 025°15'4 9.4
2018-Jun-14 22:59N 40°24' E 025°18'5 9.6
2018-Jun-14 22:30N 40°28' E 025°21'5 9.7
2018-Jun-14 21:58N 40°32' E 025°26'5 9.9
2018-Jun-14 21:28N 40°35' E 025°31'510.4
2018-Jun-14 21:00N 40°38' E 025°36'610.3
2018-Jun-14 20:26N 40°41' E 025°43'13 7.0
2018-Jun-14 18:34N 40°50' E 025°55'0 0.0
2018-Jun-14 18:16N 40°50' E 025°55'0 0.0
2018-Jun-14 17:34N 40°50' E 025°55'0 0.0
2018-Jun-14 17:10N 40°50' E 025°55'0 0.0
2018-Jun-14 16:58N 40°50' E 025°55'0 0.0
2018-Jun-14 16:28N 40°50' E 025°55'0 0.0
2018-Jun-14 15:58N 40°50' E 025°55'0 0.0
2018-Jun-14 15:28N 40°50' E 025°55'0 0.0
2018-Jun-14 14:58N 40°50' E 025°55'0 0.0
2018-Jun-14 14:28N 40°50' E 025°55'0 0.0
2018-Jun-14 13:58N 40°50' E 025°55'0 0.0
2018-Jun-14 13:28N 40°50' E 025°55'0 0.0
2018-Jun-14 12:58N 40°50' E 025°55'0 0.0
2018-Jun-14 12:28N 40°50' E 025°55'0 0.0
2018-Jun-14 11:55N 40°50' E 025°55'0 0.0
2018-Jun-14 09:55N 40°50' E 025°55'0 0.0
2018-Jun-14 09:19N 40°50' E 025°55'0 0.0
2018-Jun-14 07:24N 40°50' E 025°55'0 0.1
2018-Jun-14 07:00N 40°50' E 025°55'0 0.6
2018-Jun-14 06:30N 40°50' E 025°55'2 3.9
2018-Jun-14 05:57N 40°48' E 025°55'2 3.6
2018-Jun-14 05:29N 40°47' E 025°53'5 9.6
2018-Jun-14 05:00N 40°44' E 025°48'5 9.6
2018-Jun-14 04:31N 40°41' E 025°43'5 9.5
2018-Jun-14 04:01N 40°39' E 025°37'5 9.4
2018-Jun-14 03:30N 40°36' E 025°32'5 9.4
2018-Jun-14 03:00N 40°33' E 025°27'5 9.7
2018-Jun-14 02:30N 40°30' E 025°23'510.7
2018-Jun-14 02:01N 40°25' E 025°19'610.8
2018-Jun-14 01:30N 40°21' E 025°15'510.3
2018-Jun-14 00:59N 40°16' E 025°11'510.5
2018-Jun-14 00:30N 40°12' E 025°07'510.5
2018-Jun-14 00:00N 40°08' E 025°03'510.0
2018-Jun-13 23:29N 40°04' E 024°59'5 9.7
2018-Jun-13 23:00N 39°60' E 024°56'510.1
2018-Jun-13 22:28N 39°54' E 024°55'510.5
2018-Jun-13 22:00N 39°50' E 024°55'610.3
2018-Jun-13 21:23N 39°43' E 024°55'136 8.9
2018-Jun-13 06:02N 37°35' E 023°56'410.0
2018-Jun-13 05:41N 37°35' E 023°52'2 9.7
2018-Jun-13 05:28N 37°35' E 023°49'4 9.2
2018-Jun-13 05:01N 37°37' E 023°44'5 9.8
2018-Jun-13 04:31N 37°38' E 023°38'5 9.7
2018-Jun-13 04:01N 37°38' E 023°32'5 9.8
2018-Jun-13 03:30N 37°39' E 023°26'5 9.7
2018-Jun-13 03:00N 37°39' E 023°20'4 8.3
2018-Jun-13 02:30N 37°43' E 023°17'5 9.9
2018-Jun-13 02:00N 37°48' E 023°18'5 9.8
2018-Jun-13 01:30N 37°53' E 023°20'5 9.9
2018-Jun-13 01:01N 37°57' E 023°24'3 6.6
2018-Jun-13 00:31N 37°60' E 023°26'4 8.0
2018-Jun-13 00:00N 38°01' E 023°31'4 7.3
2018-Jun-12 23:31N 38°01' E 023°35'1 1.0
2018-Jun-12 23:01N 38°02' E 023°36'0 0.0
2018-Jun-12 22:29N 38°02' E 023°36'0 0.0
2018-Jun-12 21:59N 38°02' E 023°36'0 0.0
2018-Jun-12 21:29N 38°02' E 023°36'0 0.0
2018-Jun-12 20:59N 38°02' E 023°36'0 0.0
2018-Jun-12 20:29N 38°02' E 023°36'0 0.0
2018-Jun-12 19:59N 38°02' E 023°36'0 0.0
2018-Jun-12 19:29N 38°02' E 023°36'0 0.0
2018-Jun-12 18:59N 38°02' E 023°36'0 0.0
2018-Jun-12 18:29N 38°02' E 023°36'0 0.0
2018-Jun-12 17:59N 38°02' E 023°36'0 0.0
2018-Jun-12 17:29N 38°02' E 023°36'0 0.0
2018-Jun-12 16:59N 38°02' E 023°36'0 0.0
2018-Jun-12 16:29N 38°02' E 023°36'0 0.0
2018-Jun-12 15:59N 38°02' E 023°36'0 0.0
2018-Jun-12 15:29N 38°02' E 023°36'0 0.0
2018-Jun-12 14:59N 38°02' E 023°36'0 0.0
2018-Jun-12 14:29N 38°02' E 023°36'0 0.0
2018-Jun-12 13:59N 38°02' E 023°36'0 0.0
2018-Jun-12 13:29N 38°02' E 023°36'0 0.0
2018-Jun-12 13:00N 38°02' E 023°36'1 1.1
2018-Jun-12 12:30N 38°01' E 023°35'1 1.1
2018-Jun-12 12:01N 38°01' E 023°35'0 0.6
2018-Jun-12 11:30N 38°01' E 023°35'0 0.0
2018-Jun-12 11:00N 38°01' E 023°35'0 0.0
2018-Jun-12 10:31N 38°01' E 023°35'0 0.0
2018-Jun-12 10:00N 38°01' E 023°35'0 0.0
2018-Jun-12 09:28N 38°01' E 023°34'0 0.0
2018-Jun-12 08:57N 38°01' E 023°35'0 0.0
2018-Jun-12 08:30N 38°01' E 023°34'0 0.0
2018-Jun-12 08:01N 38°01' E 023°34'0 0.0
2018-Jun-12 07:31N 38°01' E 023°34'0 0.2
2018-Jun-12 07:00N 38°01' E 023°34'2 4.9
2018-Jun-12 06:31N 37°59' E 023°33'4 7.3
2018-Jun-12 06:01N 37°55' E 023°35'4 8.8
2018-Jun-12 05:31N 37°52' E 023°38'5 9.6
2018-Jun-12 05:01N 37°48' E 023°41'5 9.6
2018-Jun-12 04:31N 37°43' E 023°44'5 9.1
2018-Jun-12 04:00N 37°40' E 023°48'156 9.4
2018-Jun-11 11:24N 40°05' E 025°00'5 9.7
2018-Jun-11 10:52N 40°09' E 025°04'4 9.6
2018-Jun-11 10:26N 40°13' E 025°07'4 9.5
2018-Jun-11 10:01N 40°16' E 025°09'  

Dump ship's entire track history